• Join FlightAware (Why Join?)
  • Login
  • US Flag 
11:04PM EST


 

Airport Tracker/Info


-or-


 

Live Flight TrackerFlight Track Log ✈ EJA829P ✈ 01-Apr-2014 ✈ KCMH - KAPF

Flight Track Log - Related Links

Times and Time Zones

All times are in EDT time to prevent confusion due to time zone crossing. See the EJA829P flight status page for this flight to view local times or setup timezone preferences in your user account.

Time Position Orientation Groundspeed Altitude Reporting Facility
EDT Latitude Longitude Course Direction KTS MPH feet Rate Location/Type
10:50AM 40.0025 -82.9044 275° West 130 150 1,400  Level Indianapolis Center
10:50AM 40.0053 -82.9433 275° West 167 192 3,800 3,360 Climbing Indianapolis Center
10:50AM 40.0064 -82.9411 57° Northeast 167 192 3,600 3,780 Descending Indianapolis Center
10:51AM 40.0092 -83.0122 273° West 200 230 7,700 3,720 Climbing Indianapolis Center
10:51AM 40.0131 -83.0053 54° Northeast 177 204 7,500 2,100 Descending Indianapolis Center
10:52AM 39.9514 -83.0072 181° South 257 296 10,000 2,160 Climbing Indianapolis Center
10:54AM 39.8514 -82.9503 156° South 319 367 12,000 2,700 Climbing Indianapolis Center
10:55AM 39.7625 -82.9300 170° South 320 368 15,700 3,480 Climbing Indianapolis Center
10:56AM 39.6764 -82.9097 170° South 319 367 19,300 3,240 Climbing Indianapolis Center
10:57AM 39.5908 -82.8906 170° South 313 360 22,500 2,820 Climbing Indianapolis Center
10:58AM 39.5011 -82.8700 170° South 319 367 25,200 2,280 Climbing Indianapolis Center
10:59AM 39.4075 -82.8497 170° South 334 384 27,300 2,160 Climbing Indianapolis Center
11:00AM 39.3103 -82.8275 170° South 349 402 29,700 2,640 Climbing Indianapolis Center
11:01AM 39.1936 -82.8014 170° South 352 405 32,800 2,400 Climbing Indianapolis Center
11:02AM 39.0992 -82.7800 170° South 348 400 34,700 1,620 Climbing Indianapolis Center
11:03AM 39.0028 -82.7586 170° South 348 400 36,200 1,380 Climbing Indianapolis Center
11:04AM 38.9081 -82.7381 170° South 353 406 37,600 1,260 Climbing Indianapolis Center
11:05AM 38.8108 -82.7156 170° South 353 406 38,900 960 Climbing Indianapolis Center
11:06AM 38.6958 -82.6917 171° South 354 407 39,700 480 Climbing Indianapolis Center
11:07AM 38.5919 -82.6694 171° South 370 426 40,000 120 Climbing Indianapolis Center
11:08AM 38.4828 -82.6461 171° South 390 449 40,000  Level Indianapolis Center
11:09AM 38.3700 -82.6192 169° South 405 466 40,000  Level Indianapolis Center
11:10AM 38.2542 -82.5936 170° South 416 479 40,000  Level Indianapolis Center
11:11AM 38.1372 -82.5683 170° South 423 487 40,000  Level Indianapolis Center
11:12AM 38.0000 -82.5417 171° South 423 487 40,000  Level Indianapolis Center
11:13AM 37.8806 -82.5153 170° South 428 493 40,000  Level Indianapolis Center
11:14AM 37.7611 -82.4911 171° South 430 495 40,000  Level Indianapolis Center
11:15AM 37.6417 -82.4656 170° South 430 495 40,000  Level Indianapolis Center
11:16AM 37.5208 -82.4392 170° South 433 498 40,000  Level Indianapolis Center
11:17AM 37.3997 -82.4133 170° South 435 501 40,000  Level Indianapolis Center
11:18AM 37.2594 -82.3831 170° South 435 501 40,000  Level Indianapolis Center
11:19AM 37.1375 -82.3575 171° South 436 502 40,000  Level Indianapolis Center
11:20AM 37.0158 -82.3308 170° South 436 502 40,000  Level Indianapolis Center
11:21AM 36.8917 -82.3053 171° South 441 507 40,000  Level Indianapolis Center
11:22AM 36.7678 -82.2864 173° South 442 509 40,000  Level Indianapolis Center
11:23AM 36.6458 -82.2914 182° South 438 504 40,000  Level Indianapolis Center
11:24AM 36.5403 -82.2947 181° South 439 505 40,000  Level Atlanta Center
11:25AM 36.4214 -82.3022 183° South 439 505 40,000  Level Atlanta Center
11:26AM 36.3006 -82.3075 182° South 439 505 40,000  Level Atlanta Center
11:27AM 36.1858 -82.3125 182° South 434 499 40,000  Level Atlanta Center
11:28AM 36.0650 -82.3178 182° South 434 499 40,000  Level Atlanta Center
11:29AM 35.9461 -82.3228 182° South 429 494 40,000  Level Atlanta Center
11:30AM 35.8314 -82.3278 182° South 423 487 40,000  Level Atlanta Center
11:31AM 35.7147 -82.3378 184° South 418 481 40,000  Level Atlanta Center
11:32AM 35.5961 -82.3456 183° South 418 481 40,000  Level Atlanta Center
11:33AM 35.4792 -82.3478 181° South 418 481 40,000  Level Atlanta Center
11:34AM 35.3603 -82.3528 182° South 423 487 40,000  Level Atlanta Center
11:35AM 35.2417 -82.3603 183° South 423 487 40,000  Level Atlanta Center
11:36AM 35.1225 -82.3603 180° South 423 487 40,000  Level Atlanta Center
11:37AM 35.0036 -82.3625 181° South 423 487 40,000  Level Atlanta Center
11:38AM 34.8828 -82.3728 184° South 423 487 40,000  Level Atlanta Center
11:39AM 34.7661 -82.3775 182° South 428 493 40,000 360 Level Atlanta Center
11:40AM 34.6492 -82.3797 181° South 428 493 40,800 840 Climbing Atlanta Center
11:41AM 34.5367 -82.3872 183° South 418 481 41,700 900 Climbing Atlanta Center
11:42AM 34.4261 -82.3919 182° South 408 470 42,600 600 Climbing Atlanta Center
11:43AM 34.3197 -82.3964 182° South 395 455 43,000 180 Climbing Atlanta Center
11:44AM 34.2111 -82.4011 182° South 395 455 43,000  Level Atlanta Center
11:45AM 34.0944 -82.4033 181° South 412 474 43,000  Level Atlanta Center
11:46AM 33.9817 -82.4081 182° South 418 481 43,000  Level Atlanta Center
11:47AM 33.8586 -82.4128 182° South 419 482 43,000  Level Atlanta Center
11:48AM 33.7419 -82.4200 183° South 409 471 43,000  Level Atlanta Center
11:49AM 33.6269 -82.4247 182° South 409 471 43,000  Level Atlanta Center
11:50AM 33.5144 -82.4317 183° South 415 478 43,000  Level Atlanta Center
11:51AM 33.4019 -82.4364 182° South 421 484 43,000  Level Atlanta Center
11:52AM 33.2892 -82.4383 181° South 421 484 43,000  Level Atlanta Center
11:53AM 33.1828 -82.4428 182° South 415 478 43,000  Level Atlanta Center
11:54AM 33.0681 -82.4475 182° South 415 478 43,000  Level Atlanta Center
11:55AM 32.9533 -82.4494 181° South 415 478 43,000  Level Atlanta Center
11:56AM 32.8383 -82.4542 182° South 420 483 43,000  Level Atlanta Center
11:58AM 32.6208 -82.4658 183° South 419 482 43,000  Level Jacksonville Center
11:59AM 32.5042 -82.4689 181° South 419 482 43,000  Level Jacksonville Center
12:00PM 32.4017 -82.4717 181° South 419 482 43,000  Level Jacksonville Center
12:01PM 32.2828 -82.4772 182° South 419 482 43,000  Level Jacksonville Center
12:02PM 32.1658 -82.4828 182° South 419 482 43,000  Level Jacksonville Center
12:03PM 32.0489 -82.4856 181° South 419 482 43,000  Level Jacksonville Center
12:04PM 31.9300 -82.4911 182° South 419 482 43,000  Level Jacksonville Center
12:05PM 31.8131 -82.4964 182° South 419 482 43,000  Level Jacksonville Center
12:06PM 31.6942 -82.4994 181° South 424 488 43,000  Level Jacksonville Center
12:07PM 31.5772 -82.5047 182° South 424 488 43,000  Level Jacksonville Center
12:08PM 31.4581 -82.4858 172° South 424 488 43,000  Level Jacksonville Center
12:09PM 31.3264 -82.4522 168° South 436 502 43,000  Level Jacksonville Center
12:10PM 31.2031 -82.4214 168° South 441 507 43,000  Level Jacksonville Center
12:11PM 31.0861 -82.3831 164° South 447 514 43,000  Level Jacksonville Center
12:12PM 30.9669 -82.3547 168° South 447 514 43,000  Level Jacksonville Center
12:13PM 30.8456 -82.3167 165° South 447 514 43,000  Level Jacksonville Center
12:14PM 30.7264 -82.2858 167° South 447 514 43,000  Level Jacksonville Center
12:15PM 30.6053 -82.2506 166° South 447 514 43,000  Level Jacksonville Center
12:16PM 30.4964 -82.2153 164° South 454 522 43,000  Level Jacksonville Center
12:17PM 30.3753 -82.1797 166° South 454 522 43,000  Level Jacksonville Center
12:18PM 30.2539 -82.1472 167° South 454 522 43,000 -120 Level Jacksonville Center
12:19PM 30.1306 -82.1217 170° South 454 522 42,800 -780 Descending Jacksonville Center
12:20PM 30.0031 -82.0986 171° South 454 522 41,500 -1,320 Descending Jacksonville Center
12:21PM 29.8797 -82.0758 171° South 454 522 40,200 -1,380 Descending Jacksonville Center
12:22PM 29.7564 -82.0481 169° South 454 522 38,800 -1,440 Descending Jacksonville Center
12:23PM 29.6331 -82.0253 171° South 454 522 37,400 -1,440 Descending Jacksonville Center
12:24PM 29.5097 -82.0025 171° South 449 517 36,000 -1,200 Descending Jacksonville Center
12:25PM 29.3864 -81.9750 169° South 449 517 35,000 -600 Descending Jacksonville Center
12:26PM 29.2653 -81.9522 171° South 449 517 34,900 -900 Descending Jacksonville Center
12:27PM 29.1333 -81.9203 168° South 449 517 33,300 -1,620 Descending Jacksonville Center
12:28PM 29.0142 -81.8978 171° South 444 511 31,700 -1,620 Descending Jacksonville Center
12:30PM 28.7397 -81.8464 171° South 453 521 28,000 -1,440 Descending Miami Center
12:31PM 28.6217 -81.8222 170° South 443 510 27,000 -540 Descending Miami Center
12:32PM 28.5036 -81.7956 169° South 438 504 27,000  Level Miami Center
12:33PM 28.3839 -81.7597 165° South 438 504 27,000 -420 Level Miami Center
12:34PM 28.2617 -81.7308 168° South 449 517 26,200 -960 Descending Miami Center
12:35PM 28.1458 -81.7069 170° South 443 510 25,100 -600 Descending Miami Center
12:36PM 28.0275 -81.6856 171° South 437 503 25,000 -120 Descending Miami Center
12:37PM 27.9075 -81.6592 169° South 437 503 24,900 -600 Descending Miami Center
12:38PM 27.7956 -81.6381 171° South 432 497 23,800 -1,140 Descending Miami Center
12:39PM 27.6939 -81.6175 170° South 416 479 22,700 -1,080 Descending Miami Center
12:40PM 27.5800 -81.5939 170° South 416 479 21,700 -1,740 Descending Miami Center
12:41PM 27.4594 -81.5725 171° South 406 467 19,300 -2,160 Descending Miami Center
12:42PM 27.3619 -81.5522 170° South 406 467 17,400 -2,220 Descending Miami Center
12:43PM 27.2644 -81.5342 171° South 394 453 14,900 -2,460 Descending Miami Center
12:44PM 27.1631 -81.5139 170° South 379 436 12,500 -1,740 Descending Miami Center
12:45PM 27.0675 -81.4958 170° South 364 419 11,500 -780 Descending Miami Center
12:46PM 26.9786 -81.4669 164° South 348 400 11,000 -300 Descending Miami Center
12:47PM 26.8903 -81.4214 155° Southeast 343 395 11,000 -1,080 Level Miami Center
12:48PM 26.8014 -81.3947 165° South 323 372 8,900 -1,500 Descending Miami Center
12:49PM 26.7200 -81.3939 179° South 301 346 8,000 -480 Descending Miami Center
12:50PM 26.6386 -81.3953 181° South 294 338 8,000  Level Miami Center
12:51PM 26.5611 -81.3994 183° South 289 333 8,000  Level Miami Center
12:52PM 26.4833 -81.4172 192° South 289 333 8,000  Level Miami Center
12:54PM 26.3636 -81.4516 204° Southwest  Level FlightAware Approximate
01:01PM 26.1500 -81.7667 246° West  Level FlightAware Approximate
01:02PM 26.1524 -81.7756 246° West  Level Estimated
01:03PM 26.1524 -81.7756 246° West  Level Estimated
01:04PM 26.1524 -81.7756 246° West  Level Estimated
01:05PM 26.1524 -81.7756 246° West  Level Estimated
01:06PM 26.1524 -81.7756 246° West  Level Estimated
01:07PM 26.1524 -81.7756 246° West  Level Estimated
01:08PM 26.1524 -81.7756 246° West  Level Estimated
01:09PM 26.1524 -81.7756 246° West  Level Estimated
01:10PM 26.1524 -81.7756 246° West  Level Estimated
01:11PM 26.1524 -81.7756 246° West  Level Estimated